sensor_id;sensor_type;location;lat;lon;timestamp;P1;durP1;ratioP1;P2;durP2;ratioP2
73107;SDS011;61559;50.476;15.588;2023-05-10T00:00:43;1.90;;;1.30;;
73107;SDS011;61559;50.476;15.588;2023-05-10T00:03:14;2.00;;;1.30;;
73107;SDS011;61559;50.476;15.588;2023-05-10T00:08:15;1.90;;;1.10;;
73107;SDS011;61559;50.476;15.588;2023-05-10T00:10:46;1.70;;;1.00;;
73107;SDS011;61559;50.476;15.588;2023-05-10T00:15:46;1.10;;;1.00;;
73107;SDS011;61559;50.476;15.588;2023-05-10T00:18:19;1.40;;;1.10;;
73107;SDS011;61559;50.476;15.588;2023-05-10T00:20:50;1.50;;;1.10;;
73107;SDS011;61559;50.476;15.588;2023-05-10T00:25:51;3.10;;;1.60;;
73107;SDS011;61559;50.476;15.588;2023-05-10T00:28:22;1.60;;;1.10;;
73107;SDS011;61559;50.476;15.588;2023-05-10T00:33:23;2.20;;;1.30;;
73107;SDS011;61559;50.476;15.588;2023-05-10T00:35:54;1.90;;;1.20;;
73107;SDS011;61559;50.476;15.588;2023-05-10T00:38:25;2.00;;;1.40;;
73107;SDS011;61559;50.476;15.588;2023-05-10T00:43:25;3.30;;;1.20;;
73107;SDS011;61559;50.476;15.588;2023-05-10T00:48:26;1.70;;;1.20;;
73107;SDS011;61559;50.476;15.588;2023-05-10T00:50:59;3.80;;;1.20;;
73107;SDS011;61559;50.476;15.588;2023-05-10T00:53:32;1.60;;;1.00;;
73107;SDS011;61559;50.476;15.588;2023-05-10T00:56:03;1.70;;;1.20;;
73107;SDS011;61559;50.476;15.588;2023-05-10T00:58:34;2.00;;;1.40;;
73107;SDS011;61559;50.476;15.588;2023-05-10T01:01:06;1.90;;;1.20;;
73107;SDS011;61559;50.476;15.588;2023-05-10T01:03:39;2.00;;;1.30;;
73107;SDS011;61559;50.476;15.588;2023-05-10T01:06:10;1.90;;;1.40;;
73107;SDS011;61559;50.476;15.588;2023-05-10T01:08:41;1.80;;;1.20;;
73107;SDS011;61559;50.476;15.588;2023-05-10T01:11:13;2.60;;;1.40;;
73107;SDS011;61559;50.476;15.588;2023-05-10T01:13:44;1.50;;;1.40;;
73107;SDS011;61559;50.476;15.588;2023-05-10T01:16:21;1.70;;;1.40;;
73107;SDS011;61559;50.476;15.588;2023-05-10T01:18:53;1.60;;;0.90;;
73107;SDS011;61559;50.476;15.588;2023-05-10T01:21:27;2.50;;;1.30;;
73107;SDS011;61559;50.476;15.588;2023-05-10T01:24:08;3.10;;;1.40;;
73107;SDS011;61559;50.476;15.588;2023-05-10T01:27:02;3.10;;;1.60;;
73107;SDS011;61559;50.476;15.588;2023-05-10T01:32:58;1.60;;;1.10;;
73107;SDS011;61559;50.476;15.588;2023-05-10T01:35:37;1.80;;;1.20;;
73107;SDS011;61559;50.476;15.588;2023-05-10T01:38:14;1.90;;;1.30;;
73107;SDS011;61559;50.476;15.588;2023-05-10T01:40:52;1.80;;;1.10;;
73107;SDS011;61559;50.476;15.588;2023-05-10T01:43:35;2.60;;;1.20;;
73107;SDS011;61559;50.476;15.588;2023-05-10T01:46:14;3.10;;;1.40;;
73107;SDS011;61559;50.476;15.588;2023-05-10T01:48:51;1.50;;;1.30;;
73107;SDS011;61559;50.476;15.588;2023-05-10T01:51:26;2.40;;;1.10;;
73107;SDS011;61559;50.476;15.588;2023-05-10T01:54:02;2.00;;;1.30;;
73107;SDS011;61559;50.476;15.588;2023-05-10T01:56:35;2.00;;;1.20;;
73107;SDS011;61559;50.476;15.588;2023-05-10T01:59:11;2.50;;;1.30;;
73107;SDS011;61559;50.476;15.588;2023-05-10T02:01:46;2.40;;;1.30;;
73107;SDS011;61559;50.476;15.588;2023-05-10T02:04:19;3.70;;;1.50;;
73107;SDS011;61559;50.476;15.588;2023-05-10T02:06:54;1.30;;;1.10;;
73107;SDS011;61559;50.476;15.588;2023-05-10T02:09:26;1.80;;;1.00;;
73107;SDS011;61559;50.476;15.588;2023-05-10T02:11:59;2.50;;;1.20;;
73107;SDS011;61559;50.476;15.588;2023-05-10T02:14:35;1.50;;;1.20;;
73107;SDS011;61559;50.476;15.588;2023-05-10T02:17:08;2.80;;;1.50;;
73107;SDS011;61559;50.476;15.588;2023-05-10T02:19:40;1.60;;;1.10;;
73107;SDS011;61559;50.476;15.588;2023-05-10T02:22:13;2.10;;;1.10;;
73107;SDS011;61559;50.476;15.588;2023-05-10T02:24:46;2.50;;;1.30;;
73107;SDS011;61559;50.476;15.588;2023-05-10T02:27:19;2.60;;;1.40;;
73107;SDS011;61559;50.476;15.588;2023-05-10T02:29:51;1.50;;;1.10;;
73107;SDS011;61559;50.476;15.588;2023-05-10T02:32:23;1.80;;;1.20;;
73107;SDS011;61559;50.476;15.588;2023-05-10T02:34:56;2.50;;;1.40;;
73107;SDS011;61559;50.476;15.588;2023-05-10T02:37:31;1.40;;;1.20;;
73107;SDS011;61559;50.476;15.588;2023-05-10T02:40:04;2.20;;;1.10;;
73107;SDS011;61559;50.476;15.588;2023-05-10T02:42:38;2.40;;;0.90;;
73107;SDS011;61559;50.476;15.588;2023-05-10T02:45:14;1.70;;;1.10;;
73107;SDS011;61559;50.476;15.588;2023-05-10T02:47:48;3.20;;;1.40;;
73107;SDS011;61559;50.476;15.588;2023-05-10T02:50:19;2.10;;;1.00;;
73107;SDS011;61559;50.476;15.588;2023-05-10T02:52:51;1.80;;;1.30;;
73107;SDS011;61559;50.476;15.588;2023-05-10T02:55:31;3.40;;;1.20;;
73107;SDS011;61559;50.476;15.588;2023-05-10T02:58:06;6.20;;;1.10;;
73107;SDS011;61559;50.476;15.588;2023-05-10T03:00:37;2.60;;;1.30;;
73107;SDS011;61559;50.476;15.588;2023-05-10T03:03:08;2.50;;;1.10;;
73107;SDS011;61559;50.476;15.588;2023-05-10T03:05:40;2.40;;;1.20;;
73107;SDS011;61559;50.476;15.588;2023-05-10T03:08:11;1.20;;;0.80;;
73107;SDS011;61559;50.476;15.588;2023-05-10T03:10:47;2.00;;;1.20;;
73107;SDS011;61559;50.476;15.588;2023-05-10T03:13:28;2.60;;;1.20;;
73107;SDS011;61559;50.476;15.588;2023-05-10T03:16:06;1.70;;;1.30;;
73107;SDS011;61559;50.476;15.588;2023-05-10T03:18:43;1.80;;;1.20;;
73107;SDS011;61559;50.476;15.588;2023-05-10T03:21:20;1.80;;;1.30;;
73107;SDS011;61559;50.476;15.588;2023-05-10T03:23:56;1.80;;;1.20;;
73107;SDS011;61559;50.476;15.588;2023-05-10T03:26:34;2.70;;;1.30;;
73107;SDS011;61559;50.476;15.588;2023-05-10T03:29:06;1.20;;;0.90;;
73107;SDS011;61559;50.476;15.588;2023-05-10T03:31:39;1.60;;;1.00;;
73107;SDS011;61559;50.476;15.588;2023-05-10T03:34:11;1.90;;;0.90;;
73107;SDS011;61559;50.476;15.588;2023-05-10T03:39:12;2.10;;;1.00;;
73107;SDS011;61559;50.476;15.588;2023-05-10T03:41:43;1.90;;;1.10;;
73107;SDS011;61559;50.476;15.588;2023-05-10T03:44:14;2.10;;;1.40;;
73107;SDS011;61559;50.476;15.588;2023-05-10T03:46:45;3.00;;;1.40;;
73107;SDS011;61559;50.476;15.588;2023-05-10T03:49:16;2.30;;;1.40;;
73107;SDS011;61559;50.476;15.588;2023-05-10T03:51:48;1.20;;;1.10;;
73107;SDS011;61559;50.476;15.588;2023-05-10T03:54:19;2.70;;;1.30;;
73107;SDS011;61559;50.476;15.588;2023-05-10T03:59:19;2.40;;;1.20;;
73107;SDS011;61559;50.476;15.588;2023-05-10T04:04:20;4.80;;;1.60;;
73107;SDS011;61559;50.476;15.588;2023-05-10T04:09:20;2.80;;;1.40;;
73107;SDS011;61559;50.476;15.588;2023-05-10T04:11:51;2.40;;;1.40;;
73107;SDS011;61559;50.476;15.588;2023-05-10T04:14:23;1.90;;;1.20;;
73107;SDS011;61559;50.476;15.588;2023-05-10T04:16:54;2.60;;;1.10;;
73107;SDS011;61559;50.476;15.588;2023-05-10T04:19:28;2.70;;;1.20;;
73107;SDS011;61559;50.476;15.588;2023-05-10T04:21:59;1.90;;;1.20;;
73107;SDS011;61559;50.476;15.588;2023-05-10T04:24:31;1.80;;;1.00;;
73107;SDS011;61559;50.476;15.588;2023-05-10T04:29:31;1.90;;;1.20;;
73107;SDS011;61559;50.476;15.588;2023-05-10T04:32:04;2.20;;;1.20;;
73107;SDS011;61559;50.476;15.588;2023-05-10T04:34:35;1.40;;;1.10;;
73107;SDS011;61559;50.476;15.588;2023-05-10T04:37:06;6.10;;;1.30;;
73107;SDS011;61559;50.476;15.588;2023-05-10T04:42:10;2.60;;;1.40;;
73107;SDS011;61559;50.476;15.588;2023-05-10T04:44:42;2.00;;;1.10;;
73107;SDS011;61559;50.476;15.588;2023-05-10T04:47:14;4.60;;;1.80;;
73107;SDS011;61559;50.476;15.588;2023-05-10T04:49:45;3.40;;;1.70;;
73107;SDS011;61559;50.476;15.588;2023-05-10T04:52:16;3.80;;;1.40;;
73107;SDS011;61559;50.476;15.588;2023-05-10T04:54:47;1.80;;;1.30;;
73107;SDS011;61559;50.476;15.588;2023-05-10T04:57:18;1.90;;;1.30;;
73107;SDS011;61559;50.476;15.588;2023-05-10T04:59:50;2.60;;;1.30;;
73107;SDS011;61559;50.476;15.588;2023-05-10T05:02:21;1.90;;;1.30;;
73107;SDS011;61559;50.476;15.588;2023-05-10T05:04:53;2.70;;;1.60;;
73107;SDS011;61559;50.476;15.588;2023-05-10T05:07:25;3.00;;;1.60;;
73107;SDS011;61559;50.476;15.588;2023-05-10T05:09:58;4.90;;;1.80;;
73107;SDS011;61559;50.476;15.588;2023-05-10T05:12:30;1.90;;;1.30;;
73107;SDS011;61559;50.476;15.588;2023-05-10T05:15:01;2.40;;;1.30;;
73107;SDS011;61559;50.476;15.588;2023-05-10T05:17:36;5.30;;;1.50;;
73107;SDS011;61559;50.476;15.588;2023-05-10T05:20:11;2.00;;;1.40;;
73107;SDS011;61559;50.476;15.588;2023-05-10T05:22:43;1.50;;;1.30;;
73107;SDS011;61559;50.476;15.588;2023-05-10T05:25:15;1.50;;;1.10;;
73107;SDS011;61559;50.476;15.588;2023-05-10T05:27:46;2.30;;;1.30;;
73107;SDS011;61559;50.476;15.588;2023-05-10T05:30:17;1.90;;;1.20;;
73107;SDS011;61559;50.476;15.588;2023-05-10T05:32:49;2.10;;;1.50;;
73107;SDS011;61559;50.476;15.588;2023-05-10T05:35:21;1.10;;;1.00;;
73107;SDS011;61559;50.476;15.588;2023-05-10T05:37:53;2.30;;;1.60;;
73107;SDS011;61559;50.476;15.588;2023-05-10T05:40:24;3.10;;;1.70;;
73107;SDS011;61559;50.476;15.588;2023-05-10T05:42:55;2.20;;;1.30;;
73107;SDS011;61559;50.476;15.588;2023-05-10T05:45:26;3.50;;;1.40;;
73107;SDS011;61559;50.476;15.588;2023-05-10T05:47:57;2.30;;;1.20;;
73107;SDS011;61559;50.476;15.588;2023-05-10T05:50:29;2.20;;;1.40;;
73107;SDS011;61559;50.476;15.588;2023-05-10T05:53:00;1.80;;;1.30;;
73107;SDS011;61559;50.476;15.588;2023-05-10T05:55:31;3.10;;;1.80;;
73107;SDS011;61559;50.476;15.588;2023-05-10T05:58:03;2.20;;;1.70;;
73107;SDS011;61559;50.476;15.588;2023-05-10T06:00:34;2.00;;;1.30;;
73107;SDS011;61559;50.476;15.588;2023-05-10T06:03:05;2.70;;;1.50;;
73107;SDS011;61559;50.476;15.588;2023-05-10T06:05:37;3.30;;;1.70;;
73107;SDS011;61559;50.476;15.588;2023-05-10T06:08:08;2.20;;;1.50;;
73107;SDS011;61559;50.476;15.588;2023-05-10T06:10:39;2.10;;;1.30;;
73107;SDS011;61559;50.476;15.588;2023-05-10T06:13:10;2.30;;;1.50;;
73107;SDS011;61559;50.476;15.588;2023-05-10T06:15:41;2.80;;;1.50;;
73107;SDS011;61559;50.476;15.588;2023-05-10T06:18:13;2.00;;;1.60;;
73107;SDS011;61559;50.476;15.588;2023-05-10T06:20:45;4.00;;;2.00;;
73107;SDS011;61559;50.476;15.588;2023-05-10T06:23:16;4.20;;;1.70;;
73107;SDS011;61559;50.476;15.588;2023-05-10T06:25:47;3.90;;;1.90;;
73107;SDS011;61559;50.476;15.588;2023-05-10T06:28:18;2.80;;;1.60;;
73107;SDS011;61559;50.476;15.588;2023-05-10T06:30:49;2.90;;;1.60;;
73107;SDS011;61559;50.476;15.588;2023-05-10T06:33:21;2.30;;;1.70;;
73107;SDS011;61559;50.476;15.588;2023-05-10T06:35:52;2.90;;;1.70;;
73107;SDS011;61559;50.476;15.588;2023-05-10T06:38:23;2.90;;;1.60;;
73107;SDS011;61559;50.476;15.588;2023-05-10T06:40:54;2.30;;;1.80;;
73107;SDS011;61559;50.476;15.588;2023-05-10T06:43:25;3.20;;;1.90;;
73107;SDS011;61559;50.476;15.588;2023-05-10T06:45:57;3.70;;;1.60;;
73107;SDS011;61559;50.476;15.588;2023-05-10T06:48:28;2.80;;;2.00;;
73107;SDS011;61559;50.476;15.588;2023-05-10T06:50:59;4.20;;;1.90;;
73107;SDS011;61559;50.476;15.588;2023-05-10T06:53:30;4.00;;;1.50;;
73107;SDS011;61559;50.476;15.588;2023-05-10T06:56:02;3.00;;;1.90;;
73107;SDS011;61559;50.476;15.588;2023-05-10T06:58:33;3.60;;;2.10;;
73107;SDS011;61559;50.476;15.588;2023-05-10T07:01:04;3.10;;;1.80;;
73107;SDS011;61559;50.476;15.588;2023-05-10T07:03:36;4.50;;;1.90;;
73107;SDS011;61559;50.476;15.588;2023-05-10T07:08:49;2.90;;;2.20;;
73107;SDS011;61559;50.476;15.588;2023-05-10T07:11:20;2.60;;;1.80;;
73107;SDS011;61559;50.476;15.588;2023-05-10T07:13:52;2.50;;;1.80;;
73107;SDS011;61559;50.476;15.588;2023-05-10T07:16:23;2.70;;;1.50;;
73107;SDS011;61559;50.476;15.588;2023-05-10T07:18:54;2.10;;;1.50;;
73107;SDS011;61559;50.476;15.588;2023-05-10T07:21:26;3.60;;;1.90;;
73107;SDS011;61559;50.476;15.588;2023-05-10T07:23:57;3.00;;;1.90;;
73107;SDS011;61559;50.476;15.588;2023-05-10T07:26:29;2.60;;;1.70;;
73107;SDS011;61559;50.476;15.588;2023-05-10T07:29:00;2.90;;;1.80;;
73107;SDS011;61559;50.476;15.588;2023-05-10T07:31:31;1.70;;;1.40;;
73107;SDS011;61559;50.476;15.588;2023-05-10T07:34:03;3.40;;;2.40;;
73107;SDS011;61559;50.476;15.588;2023-05-10T07:36:34;2.40;;;1.50;;
73107;SDS011;61559;50.476;15.588;2023-05-10T07:39:05;4.50;;;1.80;;
73107;SDS011;61559;50.476;15.588;2023-05-10T07:41:37;2.30;;;1.50;;
73107;SDS011;61559;50.476;15.588;2023-05-10T07:44:08;3.70;;;1.80;;
73107;SDS011;61559;50.476;15.588;2023-05-10T07:46:39;2.60;;;1.70;;
73107;SDS011;61559;50.476;15.588;2023-05-10T07:49:11;2.70;;;1.70;;
73107;SDS011;61559;50.476;15.588;2023-05-10T07:51:42;2.10;;;1.60;;
73107;SDS011;61559;50.476;15.588;2023-05-10T07:54:13;2.70;;;1.60;;
73107;SDS011;61559;50.476;15.588;2023-05-10T07:56:45;2.60;;;2.00;;
73107;SDS011;61559;50.476;15.588;2023-05-10T07:59:16;2.80;;;1.80;;
73107;SDS011;61559;50.476;15.588;2023-05-10T08:01:48;8.40;;;2.20;;
73107;SDS011;61559;50.476;15.588;2023-05-10T08:04:19;2.60;;;1.60;;
73107;SDS011;61559;50.476;15.588;2023-05-10T08:06:50;4.10;;;2.00;;
73107;SDS011;61559;50.476;15.588;2023-05-10T08:09:22;2.90;;;1.60;;
73107;SDS011;61559;50.476;15.588;2023-05-10T08:11:54;5.10;;;1.40;;
73107;SDS011;61559;50.476;15.588;2023-05-10T08:14:28;3.80;;;1.90;;
73107;SDS011;61559;50.476;15.588;2023-05-10T08:17:00;4.80;;;2.10;;
73107;SDS011;61559;50.476;15.588;2023-05-10T08:19:31;3.00;;;1.60;;
73107;SDS011;61559;50.476;15.588;2023-05-10T08:22:03;3.20;;;1.70;;
73107;SDS011;61559;50.476;15.588;2023-05-10T08:24:34;3.70;;;1.60;;
73107;SDS011;61559;50.476;15.588;2023-05-10T08:27:06;3.20;;;1.80;;
73107;SDS011;61559;50.476;15.588;2023-05-10T08:29:37;2.60;;;1.70;;
73107;SDS011;61559;50.476;15.588;2023-05-10T08:32:16;2.60;;;1.60;;
73107;SDS011;61559;50.476;15.588;2023-05-10T08:34:47;2.20;;;1.70;;
73107;SDS011;61559;50.476;15.588;2023-05-10T08:37:18;5.30;;;1.90;;
73107;SDS011;61559;50.476;15.588;2023-05-10T08:39:51;4.00;;;1.70;;
73107;SDS011;61559;50.476;15.588;2023-05-10T08:42:22;5.30;;;1.80;;
73107;SDS011;61559;50.476;15.588;2023-05-10T08:44:55;3.10;;;1.60;;
73107;SDS011;61559;50.476;15.588;2023-05-10T08:47:28;3.00;;;1.60;;
73107;SDS011;61559;50.476;15.588;2023-05-10T08:50:00;4.30;;;2.20;;
73107;SDS011;61559;50.476;15.588;2023-05-10T08:52:32;4.00;;;2.10;;
73107;SDS011;61559;50.476;15.588;2023-05-10T08:55:08;5.40;;;1.70;;
73107;SDS011;61559;50.476;15.588;2023-05-10T08:57:39;3.50;;;1.90;;
73107;SDS011;61559;50.476;15.588;2023-05-10T09:00:11;3.10;;;2.00;;
73107;SDS011;61559;50.476;15.588;2023-05-10T09:02:44;2.10;;;1.40;;
73107;SDS011;61559;50.476;15.588;2023-05-10T09:05:15;3.60;;;1.80;;
73107;SDS011;61559;50.476;15.588;2023-05-10T09:07:47;2.70;;;1.60;;
73107;SDS011;61559;50.476;15.588;2023-05-10T09:10:18;3.20;;;1.70;;
73107;SDS011;61559;50.476;15.588;2023-05-10T09:12:50;2.20;;;1.60;;
73107;SDS011;61559;50.476;15.588;2023-05-10T09:15:25;6.40;;;1.40;;
73107;SDS011;61559;50.476;15.588;2023-05-10T09:17:56;3.20;;;1.50;;
73107;SDS011;61559;50.476;15.588;2023-05-10T09:20:30;2.90;;;1.30;;
73107;SDS011;61559;50.476;15.588;2023-05-10T09:23:01;2.60;;;1.80;;
73107;SDS011;61559;50.476;15.588;2023-05-10T09:25:33;2.10;;;1.70;;
73107;SDS011;61559;50.476;15.588;2023-05-10T09:28:07;2.60;;;1.40;;
73107;SDS011;61559;50.476;15.588;2023-05-10T09:30:39;3.30;;;1.70;;
73107;SDS011;61559;50.476;15.588;2023-05-10T09:33:11;2.40;;;1.50;;
73107;SDS011;61559;50.476;15.588;2023-05-10T09:35:43;3.70;;;2.00;;
73107;SDS011;61559;50.476;15.588;2023-05-10T09:38:14;5.20;;;1.90;;
73107;SDS011;61559;50.476;15.588;2023-05-10T09:40:45;4.30;;;1.80;;
73107;SDS011;61559;50.476;15.588;2023-05-10T09:43:23;4.10;;;1.70;;
73107;SDS011;61559;50.476;15.588;2023-05-10T09:45:55;2.20;;;1.60;;
73107;SDS011;61559;50.476;15.588;2023-05-10T09:48:26;2.50;;;1.30;;
73107;SDS011;61559;50.476;15.588;2023-05-10T09:50:57;2.10;;;1.10;;
73107;SDS011;61559;50.476;15.588;2023-05-10T09:53:29;4.20;;;2.00;;
73107;SDS011;61559;50.476;15.588;2023-05-10T09:56:01;2.10;;;1.60;;
73107;SDS011;61559;50.476;15.588;2023-05-10T09:58:32;3.10;;;1.60;;
73107;SDS011;61559;50.476;15.588;2023-05-10T10:01:11;2.40;;;1.60;;
73107;SDS011;61559;50.476;15.588;2023-05-10T10:03:42;3.40;;;1.40;;
73107;SDS011;61559;50.476;15.588;2023-05-10T10:06:14;3.20;;;2.00;;
73107;SDS011;61559;50.476;15.588;2023-05-10T10:08:57;3.10;;;1.80;;
73107;SDS011;61559;50.476;15.588;2023-05-10T10:11:28;4.10;;;1.80;;
73107;SDS011;61559;50.476;15.588;2023-05-10T10:13:59;3.10;;;1.40;;
73107;SDS011;61559;50.476;15.588;2023-05-10T10:16:31;2.20;;;1.80;;
73107;SDS011;61559;50.476;15.588;2023-05-10T10:19:03;3.90;;;1.80;;
73107;SDS011;61559;50.476;15.588;2023-05-10T10:21:35;5.10;;;1.70;;
73107;SDS011;61559;50.476;15.588;2023-05-10T10:24:07;5.40;;;1.80;;
73107;SDS011;61559;50.476;15.588;2023-05-10T10:26:38;3.20;;;1.50;;
73107;SDS011;61559;50.476;15.588;2023-05-10T10:32:03;4.00;;;1.70;;
73107;SDS011;61559;50.476;15.588;2023-05-10T10:34:41;5.00;;;1.90;;
73107;SDS011;61559;50.476;15.588;2023-05-10T10:37:12;3.00;;;1.80;;
73107;SDS011;61559;50.476;15.588;2023-05-10T10:39:43;2.70;;;1.60;;
73107;SDS011;61559;50.476;15.588;2023-05-10T10:42:26;3.30;;;1.90;;
73107;SDS011;61559;50.476;15.588;2023-05-10T10:45:15;3.20;;;2.10;;
73107;SDS011;61559;50.476;15.588;2023-05-10T10:47:46;3.20;;;1.90;;
73107;SDS011;61559;50.476;15.588;2023-05-10T10:50:18;6.60;;;2.00;;
73107;SDS011;61559;50.476;15.588;2023-05-10T10:52:49;5.40;;;1.90;;
73107;SDS011;61559;50.476;15.588;2023-05-10T10:55:21;2.80;;;1.80;;
73107;SDS011;61559;50.476;15.588;2023-05-10T10:57:55;3.90;;;1.80;;
73107;SDS011;61559;50.476;15.588;2023-05-10T11:00:30;3.80;;;1.80;;
73107;SDS011;61559;50.476;15.588;2023-05-10T11:03:04;2.40;;;1.70;;
73107;SDS011;61559;50.476;15.588;2023-05-10T11:05:37;4.00;;;1.70;;
73107;SDS011;61559;50.476;15.588;2023-05-10T11:08:11;2.70;;;1.60;;
73107;SDS011;61559;50.476;15.588;2023-05-10T11:10:51;3.30;;;1.80;;
73107;SDS011;61559;50.476;15.588;2023-05-10T11:13:32;3.50;;;2.40;;
73107;SDS011;61559;50.476;15.588;2023-05-10T11:16:14;2.70;;;1.90;;
73107;SDS011;61559;50.476;15.588;2023-05-10T11:18:54;1.80;;;1.50;;
73107;SDS011;61559;50.476;15.588;2023-05-10T11:21:28;2.10;;;1.50;;
73107;SDS011;61559;50.476;15.588;2023-05-10T11:24:00;1.80;;;1.50;;
73107;SDS011;61559;50.476;15.588;2023-05-10T11:26:34;2.90;;;1.70;;
73107;SDS011;61559;50.476;15.588;2023-05-10T11:29:06;2.80;;;1.70;;
73107;SDS011;61559;50.476;15.588;2023-05-10T11:31:42;3.00;;;1.60;;
73107;SDS011;61559;50.476;15.588;2023-05-10T11:34:24;3.70;;;1.70;;
73107;SDS011;61559;50.476;15.588;2023-05-10T11:36:56;2.40;;;1.90;;
73107;SDS011;61559;50.476;15.588;2023-05-10T11:39:27;2.50;;;1.50;;
73107;SDS011;61559;50.476;15.588;2023-05-10T11:42:00;9.30;;;2.10;;
73107;SDS011;61559;50.476;15.588;2023-05-10T11:44:31;2.90;;;1.70;;
73107;SDS011;61559;50.476;15.588;2023-05-10T11:47:03;34.10;;;2.90;;
73107;SDS011;61559;50.476;15.588;2023-05-10T11:49:34;3.30;;;1.60;;
73107;SDS011;61559;50.476;15.588;2023-05-10T11:52:05;2.40;;;1.40;;
73107;SDS011;61559;50.476;15.588;2023-05-10T11:54:42;4.60;;;1.60;;
73107;SDS011;61559;50.476;15.588;2023-05-10T11:57:20;2.10;;;1.40;;
73107;SDS011;61559;50.476;15.588;2023-05-10T11:59:58;3.20;;;1.50;;
73107;SDS011;61559;50.476;15.588;2023-05-10T12:02:30;2.40;;;1.40;;
73107;SDS011;61559;50.476;15.588;2023-05-10T12:05:02;1.50;;;1.40;;
73107;SDS011;61559;50.476;15.588;2023-05-10T12:07:34;1.70;;;1.40;;
73107;SDS011;61559;50.476;15.588;2023-05-10T12:10:07;1.60;;;1.40;;
73107;SDS011;61559;50.476;15.588;2023-05-10T12:15:16;2.60;;;1.30;;
73107;SDS011;61559;50.476;15.588;2023-05-10T12:17:50;1.60;;;1.20;;
73107;SDS011;61559;50.476;15.588;2023-05-10T12:20:23;1.20;;;1.10;;
73107;SDS011;61559;50.476;15.588;2023-05-10T12:22:57;1.20;;;1.10;;
73107;SDS011;61559;50.476;15.588;2023-05-10T12:25:30;1.80;;;1.20;;
73107;SDS011;61559;50.476;15.588;2023-05-10T12:28:04;2.50;;;1.30;;
73107;SDS011;61559;50.476;15.588;2023-05-10T12:30:38;4.50;;;1.70;;
73107;SDS011;61559;50.476;15.588;2023-05-10T12:33:09;4.40;;;1.20;;
73107;SDS011;61559;50.476;15.588;2023-05-10T12:35:46;3.30;;;1.40;;
73107;SDS011;61559;50.476;15.588;2023-05-10T12:38:28;2.00;;;1.50;;
73107;SDS011;61559;50.476;15.588;2023-05-10T12:41:02;1.80;;;1.20;;
73107;SDS011;61559;50.476;15.588;2023-05-10T12:43:35;2.10;;;1.30;;
73107;SDS011;61559;50.476;15.588;2023-05-10T12:46:07;4.70;;;1.30;;
73107;SDS011;61559;50.476;15.588;2023-05-10T12:48:40;2.20;;;1.10;;
73107;SDS011;61559;50.476;15.588;2023-05-10T12:51:12;2.00;;;1.40;;
73107;SDS011;61559;50.476;15.588;2023-05-10T12:53:47;1.60;;;1.50;;
73107;SDS011;61559;50.476;15.588;2023-05-10T12:56:18;1.90;;;1.20;;
73107;SDS011;61559;50.476;15.588;2023-05-10T12:58:49;2.00;;;1.40;;
73107;SDS011;61559;50.476;15.588;2023-05-10T13:01:20;1.30;;;1.10;;
73107;SDS011;61559;50.476;15.588;2023-05-10T13:03:51;2.00;;;1.20;;
73107;SDS011;61559;50.476;15.588;2023-05-10T13:06:22;6.40;;;1.30;;
73107;SDS011;61559;50.476;15.588;2023-05-10T13:08:54;1.40;;;1.10;;
73107;SDS011;61559;50.476;15.588;2023-05-10T13:11:25;1.60;;;1.30;;
73107;SDS011;61559;50.476;15.588;2023-05-10T13:13:57;1.90;;;1.20;;
73107;SDS011;61559;50.476;15.588;2023-05-10T13:16:28;1.20;;;0.90;;
73107;SDS011;61559;50.476;15.588;2023-05-10T13:18:59;1.30;;;1.10;;
73107;SDS011;61559;50.476;15.588;2023-05-10T13:21:31;1.30;;;1.20;;
73107;SDS011;61559;50.476;15.588;2023-05-10T13:24:02;1.40;;;1.10;;
73107;SDS011;61559;50.476;15.588;2023-05-10T13:26:33;1.60;;;1.10;;
73107;SDS011;61559;50.476;15.588;2023-05-10T13:29:04;3.00;;;1.20;;
73107;SDS011;61559;50.476;15.588;2023-05-10T13:31:36;1.50;;;1.20;;
73107;SDS011;61559;50.476;15.588;2023-05-10T13:34:07;2.30;;;1.20;;
73107;SDS011;61559;50.476;15.588;2023-05-10T13:36:38;2.70;;;1.00;;
73107;SDS011;61559;50.476;15.588;2023-05-10T13:39:10;4.00;;;1.20;;
73107;SDS011;61559;50.476;15.588;2023-05-10T13:41:41;2.60;;;1.20;;
73107;SDS011;61559;50.476;15.588;2023-05-10T13:44:13;1.30;;;1.20;;
73107;SDS011;61559;50.476;15.588;2023-05-10T13:46:44;2.20;;;1.20;;
73107;SDS011;61559;50.476;15.588;2023-05-10T13:49:15;1.60;;;0.90;;
73107;SDS011;61559;50.476;15.588;2023-05-10T13:51:46;3.80;;;1.30;;
73107;SDS011;61559;50.476;15.588;2023-05-10T13:54:18;4.70;;;0.90;;
73107;SDS011;61559;50.476;15.588;2023-05-10T13:56:50;1.60;;;1.20;;
73107;SDS011;61559;50.476;15.588;2023-05-10T13:59:21;2.50;;;1.20;;
73107;SDS011;61559;50.476;15.588;2023-05-10T14:01:52;1.50;;;1.20;;
73107;SDS011;61559;50.476;15.588;2023-05-10T14:04:24;1.10;;;1.00;;
73107;SDS011;61559;50.476;15.588;2023-05-10T14:06:55;2.00;;;1.30;;
73107;SDS011;61559;50.476;15.588;2023-05-10T14:09:26;1.30;;;0.90;;
73107;SDS011;61559;50.476;15.588;2023-05-10T14:11:59;2.10;;;1.30;;
73107;SDS011;61559;50.476;15.588;2023-05-10T14:14:30;1.60;;;1.10;;
73107;SDS011;61559;50.476;15.588;2023-05-10T14:17:01;1.40;;;1.30;;
73107;SDS011;61559;50.476;15.588;2023-05-10T14:19:32;2.90;;;1.10;;
73107;SDS011;61559;50.476;15.588;2023-05-10T14:22:03;1.70;;;1.00;;
73107;SDS011;61559;50.476;15.588;2023-05-10T14:24:34;1.30;;;1.20;;
73107;SDS011;61559;50.476;15.588;2023-05-10T14:27:05;2.00;;;1.40;;
73107;SDS011;61559;50.476;15.588;2023-05-10T14:29:37;1.60;;;1.10;;
73107;SDS011;61559;50.476;15.588;2023-05-10T14:32:08;1.20;;;1.10;;
73107;SDS011;61559;50.476;15.588;2023-05-10T14:34:39;2.00;;;1.00;;
73107;SDS011;61559;50.476;15.588;2023-05-10T14:37:13;2.30;;;1.20;;
73107;SDS011;61559;50.476;15.588;2023-05-10T14:39:45;1.50;;;1.10;;
73107;SDS011;61559;50.476;15.588;2023-05-10T14:42:16;2.70;;;1.40;;
73107;SDS011;61559;50.476;15.588;2023-05-10T14:44:47;1.90;;;1.30;;
73107;SDS011;61559;50.476;15.588;2023-05-10T14:47:19;1.40;;;1.10;;
73107;SDS011;61559;50.476;15.588;2023-05-10T14:49:50;2.80;;;1.10;;
73107;SDS011;61559;50.476;15.588;2023-05-10T14:52:21;2.50;;;1.20;;
73107;SDS011;61559;50.476;15.588;2023-05-10T14:54:52;1.40;;;1.30;;
73107;SDS011;61559;50.476;15.588;2023-05-10T14:57:23;2.80;;;1.50;;
73107;SDS011;61559;50.476;15.588;2023-05-10T14:59:54;2.10;;;1.30;;
73107;SDS011;61559;50.476;15.588;2023-05-10T15:02:26;1.20;;;1.10;;
73107;SDS011;61559;50.476;15.588;2023-05-10T15:04:58;3.10;;;1.10;;
73107;SDS011;61559;50.476;15.588;2023-05-10T15:07:30;1.70;;;1.20;;
73107;SDS011;61559;50.476;15.588;2023-05-10T15:10:01;2.20;;;1.00;;
73107;SDS011;61559;50.476;15.588;2023-05-10T15:12:32;2.50;;;1.10;;
73107;SDS011;61559;50.476;15.588;2023-05-10T15:15:04;1.50;;;1.10;;
73107;SDS011;61559;50.476;15.588;2023-05-10T15:17:36;1.20;;;1.00;;
73107;SDS011;61559;50.476;15.588;2023-05-10T15:20:08;2.00;;;1.00;;
73107;SDS011;61559;50.476;15.588;2023-05-10T15:22:40;2.00;;;1.00;;
73107;SDS011;61559;50.476;15.588;2023-05-10T15:25:11;3.80;;;1.10;;
73107;SDS011;61559;50.476;15.588;2023-05-10T15:27:44;2.80;;;1.40;;
73107;SDS011;61559;50.476;15.588;2023-05-10T15:30:15;1.50;;;1.10;;
73107;SDS011;61559;50.476;15.588;2023-05-10T15:32:46;1.50;;;1.00;;
73107;SDS011;61559;50.476;15.588;2023-05-10T15:35:17;2.00;;;1.10;;
73107;SDS011;61559;50.476;15.588;2023-05-10T15:37:49;1.00;;;0.90;;
73107;SDS011;61559;50.476;15.588;2023-05-10T15:40:20;2.00;;;1.00;;
73107;SDS011;61559;50.476;15.588;2023-05-10T15:42:51;1.50;;;0.90;;
73107;SDS011;61559;50.476;15.588;2023-05-10T15:45:22;4.30;;;2.60;;